createdAt,value
2018-01-03T00:00:14.797Z,0
2018-01-03T00:01:14.249Z,0
2018-01-03T00:02:14.765Z,0
2018-01-03T00:03:14.741Z,0
2018-01-03T00:04:14.738Z,0
2018-01-03T00:05:14.714Z,0
2018-01-03T00:06:14.676Z,0
2018-01-03T00:07:14.668Z,0
2018-01-03T00:08:14.648Z,0
2018-01-03T00:09:14.398Z,0
2018-01-03T00:10:14.649Z,0
2018-01-03T00:11:14.623Z,0
2018-01-03T00:12:14.603Z,0
2018-01-03T00:13:14.324Z,0
2018-01-03T00:14:14.328Z,0
2018-01-03T00:15:14.589Z,0
2018-01-03T00:16:14.285Z,0
2018-01-03T00:17:14.270Z,0
2018-01-03T00:18:14.512Z,0
2018-01-03T00:19:14.256Z,0
2018-01-03T00:20:14.488Z,0
2018-01-03T00:21:14.213Z,0
2018-01-03T00:22:14.196Z,0
2018-01-03T00:23:14.425Z,0
2018-01-03T00:24:14.164Z,0
2018-01-03T00:25:14.396Z,0
2018-01-03T00:26:14.404Z,0
2018-01-03T00:27:14.375Z,0
2018-01-03T00:28:14.101Z,0
2018-01-03T00:29:14.387Z,0
2018-01-03T00:30:14.334Z,0
2018-01-03T00:31:14.065Z,0
2018-01-03T00:32:14.312Z,0
2018-01-03T00:33:14.291Z,0
2018-01-03T00:34:14.274Z,0
2018-01-03T00:35:13.760Z,0
2018-01-03T00:36:14.231Z,0
2018-01-03T00:37:13.972Z,0
2018-01-03T00:38:14.218Z,0
2018-01-03T00:39:13.942Z,0
2018-01-03T00:40:13.947Z,0
2018-01-03T00:41:14.185Z,0
2018-01-03T00:42:14.155Z,0
2018-01-03T00:43:14.149Z,0
2018-01-03T00:44:14.125Z,0
2018-01-03T00:45:13.845Z,0
2018-01-03T00:46:14.099Z,0
2018-01-03T00:47:14.103Z,0
2018-01-03T00:48:14.090Z,0
2018-01-03T00:49:14.110Z,0
2018-01-03T00:50:13.784Z,0
2018-01-03T00:51:14.011Z,0
2018-01-03T00:52:14.014Z,0
2018-01-03T00:53:14.005Z,0
2018-01-03T00:54:13.717Z,0
2018-01-03T00:55:13.706Z,0
2018-01-03T00:56:13.983Z,0
2018-01-03T00:57:13.934Z,0
2018-01-03T00:58:13.917Z,0
2018-01-03T00:59:13.919Z,0
2018-01-03T01:00:13.898Z,0
2018-01-03T01:01:13.893Z,0
2018-01-03T01:02:13.856Z,0
2018-01-03T01:03:13.841Z,0
2018-01-03T01:04:13.832Z,0
2018-01-03T01:05:13.833Z,0
2018-01-03T01:06:13.798Z,0
2018-01-03T01:07:13.780Z,0
2018-01-03T01:08:13.773Z,0
2018-01-03T01:09:13.516Z,0
2018-01-03T01:10:13.739Z,0
2018-01-03T01:11:13.490Z,0
2018-01-03T01:12:13.462Z,0
2018-01-03T01:13:13.697Z,0
2018-01-03T01:14:13.425Z,0
2018-01-03T01:15:13.670Z,0
2018-01-03T01:16:13.658Z,0
2018-01-03T01:17:13.659Z,0
2018-01-03T01:18:13.623Z,0
2018-01-03T01:19:13.351Z,0
2018-01-03T01:20:13.342Z,0
2018-01-03T01:21:13.318Z,0
2018-01-03T01:22:13.563Z,0
2018-01-03T01:23:13.538Z,0
2018-01-03T01:24:13.273Z,0
2018-01-03T01:25:13.530Z,0
2018-01-03T01:26:13.247Z,0
2018-01-03T01:27:13.487Z,0
2018-01-03T01:28:13.231Z,0
2018-01-03T01:29:13.191Z,0
2018-01-03T01:30:13.441Z,0
2018-01-03T01:31:13.436Z,0
2018-01-03T01:32:13.468Z,0
2018-01-03T01:33:13.401Z,0
2018-01-03T01:34:13.372Z,0
2018-01-03T01:35:13.374Z,0
2018-01-03T01:36:13.349Z,0
2018-01-03T01:37:13.340Z,0
2018-01-03T01:38:13.316Z,0
2018-01-03T01:39:13.326Z,0
2018-01-03T01:40:13.299Z,0
2018-01-03T01:41:13.278Z,0
2018-01-03T01:42:13.253Z,0
2018-01-03T01:43:13.248Z,0
2018-01-03T01:44:12.969Z,0
2018-01-03T01:45:13.229Z,0
2018-01-03T01:46:13.226Z,0
2018-01-03T01:47:13.193Z,0
2018-01-03T01:48:13.162Z,0
2018-01-03T01:49:13.157Z,0
2018-01-03T01:50:13.145Z,0
2018-01-03T01:51:12.615Z,0
2018-01-03T01:52:13.171Z,0
2018-01-03T01:53:13.100Z,0
2018-01-03T01:54:13.115Z,0
2018-01-03T01:55:12.805Z,0
2018-01-03T01:56:12.795Z,0
2018-01-03T01:57:13.027Z,0
2018-01-03T01:58:13.027Z,0
2018-01-03T01:59:12.753Z,0
2018-01-03T02:00:12.994Z,0
2018-01-03T02:01:12.994Z,0
2018-01-03T02:02:12.953Z,0
2018-01-03T02:03:12.936Z,0
2018-01-03T02:04:12.970Z,0
2018-01-03T02:05:12.923Z,0
2018-01-03T02:06:12.638Z,0
2018-01-03T02:07:12.897Z,0
2018-01-03T02:08:12.622Z,0
2018-01-03T02:09:12.915Z,0
2018-01-03T02:10:12.847Z,0
2018-01-03T02:11:12.575Z,0
2018-01-03T02:12:12.560Z,0
2018-01-03T02:13:12.812Z,0
2018-01-03T02:14:12.528Z,0
2018-01-03T02:15:12.248Z,0
2018-01-03T02:16:12.761Z,0
2018-01-03T02:17:12.751Z,0
2018-01-03T02:18:12.472Z,0
2018-01-03T02:19:12.447Z,0
2018-01-03T02:20:12.692Z,0
2018-01-03T02:21:12.682Z,0
2018-01-03T02:22:12.411Z,0
2018-01-03T02:23:12.640Z,0
2018-01-03T02:24:12.628Z,0
2018-01-03T02:25:12.370Z,0
2018-01-03T02:26:12.350Z,0
2018-01-03T02:27:12.325Z,0
2018-01-03T02:28:12.314Z,0
2018-01-03T02:29:12.568Z,0
2018-01-03T02:30:12.575Z,0
2018-01-03T02:31:12.546Z,0
2018-01-03T02:32:12.519Z,0
2018-01-03T02:33:12.259Z,0
2018-01-03T02:34:11.975Z,0
2018-01-03T02:35:11.968Z,0
2018-01-03T02:36:12.536Z,0
2018-01-03T02:37:12.456Z,0
2018-01-03T02:38:12.195Z,0
2018-01-03T02:39:12.419Z,0
2018-01-03T02:40:12.412Z,0
2018-01-03T02:41:12.125Z,0
2018-01-03T02:42:12.378Z,0
2018-01-03T02:43:12.349Z,0
2018-01-03T02:44:12.331Z,0
2018-01-03T02:45:12.315Z,0
2018-01-03T02:46:12.308Z,0
2018-01-03T02:47:12.305Z,0
2018-01-03T02:48:12.033Z,0
2018-01-03T02:49:12.013Z,0
2018-01-03T02:50:12.240Z,0
2018-01-03T02:51:12.251Z,0
2018-01-03T02:52:12.246Z,0
2018-01-03T02:53:12.203Z,0
2018-01-03T02:54:11.950Z,0
2018-01-03T02:55:11.928Z,0
2018-01-03T02:56:12.167Z,0
2018-01-03T02:57:12.145Z,0
2018-01-03T02:58:11.889Z,0
2018-01-03T02:59:11.866Z,0
2018-01-03T03:00:11.851Z,0
2018-01-03T03:01:11.832Z,0
2018-01-03T03:02:12.075Z,0
2018-01-03T03:03:11.807Z,0
2018-01-03T03:04:12.070Z,0
2018-01-03T03:05:11.788Z,0
2018-01-03T03:06:12.023Z,0
2018-01-03T03:07:11.999Z,0
2018-01-03T03:08:12.003Z,0
2018-01-03T03:09:11.976Z,0
2018-01-03T03:10:11.707Z,0
2018-01-03T03:11:11.959Z,0
2018-01-03T03:12:11.435Z,0
2018-01-03T03:13:11.970Z,0
2018-01-03T03:14:11.947Z,0
2018-01-03T03:15:11.896Z,0
2018-01-03T03:16:11.881Z,0
2018-01-03T03:17:11.870Z,0
2018-01-03T03:18:11.588Z,0
2018-01-03T03:19:11.839Z,0
2018-01-03T03:20:11.830Z,0
2018-01-03T03:21:11.547Z,0
2018-01-03T03:22:11.791Z,0
2018-01-03T03:23:11.793Z,0
2018-01-03T03:24:11.524Z,0
2018-01-03T03:25:11.497Z,0
2018-01-03T03:26:11.488Z,0
2018-01-03T03:27:11.735Z,0
2018-01-03T03:28:11.467Z,0
2018-01-03T03:29:11.693Z,0
2018-01-03T03:30:11.690Z,0
2018-01-03T03:31:11.674Z,0
2018-01-03T03:32:11.657Z,0
2018-01-03T03:33:11.643Z,0
2018-01-03T03:34:11.370Z,0
2018-01-03T03:35:11.620Z,0
2018-01-03T03:36:11.601Z,0
2018-01-03T03:37:11.595Z,0
2018-01-03T03:38:11.586Z,0
2018-01-03T03:39:11.572Z,0
2018-01-03T03:40:11.556Z,0
2018-01-03T03:41:11.535Z,0
2018-01-03T03:42:11.264Z,0
2018-01-03T03:43:11.249Z,0
2018-01-03T03:44:11.495Z,0
2018-01-03T03:45:11.487Z,0
2018-01-03T03:46:11.470Z,0
2018-01-03T03:47:11.445Z,0
2018-01-03T03:48:11.428Z,0
2018-01-03T03:49:11.419Z,0
2018-01-03T03:50:11.422Z,0
2018-01-03T03:51:11.152Z,0
2018-01-03T03:52:11.390Z,0
2018-01-03T03:53:11.120Z,0
2018-01-03T03:54:11.364Z,0
2018-01-03T03:55:11.343Z,0
2018-01-03T03:56:11.331Z,0
2018-01-03T03:57:11.057Z,0
2018-01-03T03:58:11.041Z,0
2018-01-03T03:59:11.282Z,0
2018-01-03T04:00:11.273Z,0
2018-01-03T04:01:11.254Z,0
2018-01-03T04:02:11.262Z,0
2018-01-03T04:03:11.224Z,0
2018-01-03T04:04:11.225Z,0
2018-01-03T04:05:11.015Z,0
2018-01-03T04:06:11.195Z,0
2018-01-03T04:07:11.188Z,0
2018-01-03T04:08:11.172Z,0
2018-01-03T04:09:11.194Z,0
2018-01-03T04:10:11.139Z,0
2018-01-03T04:11:11.141Z,0
2018-01-03T04:12:10.859Z,0
2018-01-03T04:13:10.853Z,0
2018-01-03T04:14:11.095Z,0
2018-01-03T04:15:10.818Z,0
2018-01-03T04:16:11.058Z,0
2018-01-03T04:17:10.815Z,0
2018-01-03T04:18:11.042Z,0
2018-01-03T04:19:11.025Z,0
2018-01-03T04:20:10.498Z,0
2018-01-03T04:21:10.993Z,0
2018-01-03T04:22:10.732Z,0
2018-01-03T04:23:10.970Z,0
2018-01-03T04:24:10.692Z,0
2018-01-03T04:25:10.947Z,0
2018-01-03T04:26:10.924Z,0
2018-01-03T04:27:10.916Z,0
2018-01-03T04:28:10.900Z,0
2018-01-03T04:29:10.894Z,0
2018-01-03T04:30:10.884Z,0
2018-01-03T04:31:10.609Z,0
2018-01-03T04:32:10.594Z,0
2018-01-03T04:33:10.856Z,0
2018-01-03T04:34:10.816Z,0
2018-01-03T04:35:10.555Z,0
2018-01-03T04:36:10.795Z,0
2018-01-03T04:37:10.790Z,0
2018-01-03T04:38:10.781Z,0
2018-01-03T04:39:10.779Z,0
2018-01-03T04:40:10.751Z,0
2018-01-03T04:41:10.728Z,0
2018-01-03T04:42:10.741Z,0
2018-01-03T04:43:10.701Z,0
2018-01-03T04:44:10.425Z,0
2018-01-03T04:45:10.426Z,0
2018-01-03T04:46:10.399Z,0
2018-01-03T04:47:10.397Z,0
2018-01-03T04:48:10.638Z,0
2018-01-03T04:49:10.362Z,0
2018-01-03T04:50:10.346Z,0
2018-01-03T04:51:10.596Z,0
2018-01-03T04:52:10.082Z,0
2018-01-03T04:53:10.580Z,0
2018-01-03T04:54:10.558Z,0
2018-01-03T04:55:10.555Z,0
2018-01-03T04:56:10.528Z,0
2018-01-03T04:57:10.288Z,0
2018-01-03T04:58:10.260Z,0
2018-01-03T04:59:10.485Z,0
2018-01-03T05:00:10.212Z,0
2018-01-03T05:01:10.469Z,0
2018-01-03T05:02:10.454Z,0
2018-01-03T05:03:10.188Z,0
2018-01-03T05:04:10.432Z,0
2018-01-03T05:05:10.148Z,0
2018-01-03T05:06:10.409Z,0
2018-01-03T05:07:10.381Z,0
2018-01-03T05:08:10.387Z,0
2018-01-03T05:09:10.355Z,0
2018-01-03T05:10:10.080Z,0
2018-01-03T05:11:10.076Z,0
2018-01-03T05:12:10.368Z,0
2018-01-03T05:13:10.068Z,0
2018-01-03T05:14:10.041Z,0
2018-01-03T05:15:10.296Z,0
2018-01-03T05:16:10.270Z,0
2018-01-03T05:17:10.262Z,0
2018-01-03T05:18:10.235Z,0
2018-01-03T05:19:10.217Z,0
2018-01-03T05:20:09.702Z,0
2018-01-03T05:21:10.199Z,0
2018-01-03T05:22:10.485Z,0
2018-01-03T05:23:09.915Z,0
2018-01-03T05:24:10.169Z,0
2018-01-03T05:25:09.893Z,0
2018-01-03T05:26:10.148Z,0
2018-01-03T05:27:10.109Z,0
2018-01-03T05:28:10.102Z,0
2018-01-03T05:29:10.104Z,0
2018-01-03T05:30:10.088Z,0
2018-01-03T05:31:10.062Z,0
2018-01-03T05:32:10.047Z,0
2018-01-03T05:33:09.775Z,0
2018-01-03T05:34:10.020Z,0
2018-01-03T05:35:09.763Z,0
2018-01-03T05:36:09.733Z,0
2018-01-03T05:37:09.995Z,0
2018-01-03T05:38:09.972Z,0
2018-01-03T05:39:09.697Z,0
2018-01-03T05:40:09.692Z,0
2018-01-03T05:41:09.669Z,0
2018-01-03T05:42:09.143Z,0
2018-01-03T05:43:09.895Z,0
2018-01-03T05:44:09.896Z,0
2018-01-03T05:45:09.865Z,0
2018-01-03T05:46:09.608Z,0
2018-01-03T05:47:09.850Z,0
2018-01-03T05:48:09.832Z,0
2018-01-03T05:49:09.849Z,0
2018-01-03T05:50:09.817Z,0
2018-01-03T05:51:09.790Z,0
2018-01-03T05:52:09.521Z,0
2018-01-03T05:53:09.762Z,0
2018-01-03T05:54:09.759Z,0
2018-01-03T05:55:09.744Z,0
2018-01-03T05:56:09.733Z,0
2018-01-03T05:57:09.461Z,0
2018-01-03T05:58:09.707Z,0
2018-01-03T05:59:09.700Z,0
2018-01-03T06:00:09.429Z,0
2018-01-03T06:01:09.449Z,0
2018-01-03T06:02:09.657Z,0
2018-01-03T06:03:09.369Z,0
2018-01-03T06:04:09.624Z,0
2018-01-03T06:05:09.086Z,0
2018-01-03T06:06:09.329Z,0
2018-01-03T06:07:09.578Z,0
2018-01-03T06:08:09.048Z,0
2018-01-03T06:09:09.297Z,0
2018-01-03T06:10:09.284Z,0
2018-01-03T06:11:09.509Z,0
2018-01-03T06:12:09.505Z,0
2018-01-03T06:13:09.494Z,0
2018-01-03T06:14:09.222Z,0
2018-01-03T06:15:09.474Z,0
2018-01-03T06:16:09.449Z,0
2018-01-03T06:17:09.185Z,0
2018-01-03T06:18:09.427Z,0
2018-01-03T06:19:09.416Z,0
2018-01-03T06:20:09.422Z,0
2018-01-03T06:21:09.401Z,0
2018-01-03T06:22:09.398Z,0
2018-01-03T06:23:09.348Z,0
2018-01-03T06:24:09.340Z,0
2018-01-03T06:25:09.322Z,0
2018-01-03T06:26:09.063Z,0
2018-01-03T06:27:09.309Z,0
2018-01-03T06:28:09.288Z,0
2018-01-03T06:29:09.270Z,0
2018-01-03T06:30:09.276Z,0
2018-01-03T06:31:09.258Z,0
2018-01-03T06:32:09.235Z,0
2018-01-03T06:33:09.232Z,0
2018-01-03T06:34:08.954Z,0
2018-01-03T06:35:08.934Z,0
2018-01-03T06:36:09.288Z,0
2018-01-03T06:37:08.911Z,0
2018-01-03T06:38:09.164Z,0
2018-01-03T06:39:08.876Z,0
2018-01-03T06:40:08.918Z,0
2018-01-03T06:41:09.121Z,0
2018-01-03T06:42:09.089Z,0
2018-01-03T06:43:09.091Z,0
2018-01-03T06:44:09.068Z,0
2018-01-03T06:45:08.796Z,0
2018-01-03T06:46:09.034Z,0
2018-01-03T06:47:09.057Z,0
2018-01-03T06:48:09.016Z,0
2018-01-03T06:49:08.761Z,0
2018-01-03T06:50:08.990Z,0
2018-01-03T06:51:08.975Z,0
2018-01-03T06:52:08.724Z,0
2018-01-03T06:53:08.968Z,0
2018-01-03T06:54:08.690Z,0
2018-01-03T06:55:08.930Z,0
2018-01-03T06:56:08.908Z,0
2018-01-03T06:57:08.896Z,0
2018-01-03T06:58:08.884Z,4
2018-01-03T06:59:08.874Z,4
2018-01-03T07:00:08.925Z,4
2018-01-03T07:01:08.837Z,4
2018-01-03T07:02:08.575Z,8
2018-01-03T07:03:08.804Z,4
2018-01-03T07:04:08.869Z,8
2018-01-03T07:05:08.537Z,8
2018-01-03T07:06:08.545Z,12
2018-01-03T07:07:08.516Z,16
2018-01-03T07:08:08.575Z,16
2018-01-03T07:09:08.752Z,24
2018-01-03T07:10:08.216Z,24
2018-01-03T07:11:08.719Z,32
2018-01-03T07:12:08.711Z,36
2018-01-03T07:13:08.172Z,44
2018-01-03T07:14:08.402Z,40
2018-01-03T07:15:08.645Z,56
2018-01-03T07:16:08.646Z,56
2018-01-03T07:17:08.644Z,60
2018-01-03T07:18:08.356Z,72
2018-01-03T07:19:08.617Z,72
2018-01-03T07:20:08.583Z,60
2018-01-03T07:21:08.315Z,76
2018-01-03T07:22:08.561Z,60
2018-01-03T07:23:08.284Z,52
2018-01-03T07:24:08.559Z,64
2018-01-03T07:25:08.260Z,76
2018-01-03T07:26:08.511Z,96
2018-01-03T07:27:08.495Z,88
2018-01-03T07:28:08.477Z,104
2018-01-03T07:29:08.207Z,92
2018-01-03T07:30:07.934Z,84
2018-01-03T07:31:07.925Z,80
2018-01-03T07:32:08.415Z,80
2018-01-03T07:33:08.398Z,76
2018-01-03T07:34:08.438Z,92
2018-01-03T07:35:08.384Z,80
2018-01-03T07:36:07.864Z,100
2018-01-03T07:37:08.102Z,100
2018-01-03T07:38:08.374Z,120
2018-01-03T07:39:07.807Z,108
2018-01-03T07:40:08.110Z,76
2018-01-03T07:41:08.300Z,96
2018-01-03T07:42:08.290Z,112
2018-01-03T07:43:08.293Z,100
2018-01-03T07:44:08.263Z,84
2018-01-03T07:45:07.981Z,88
2018-01-03T07:46:08.245Z,88
2018-01-03T07:47:07.956Z,80
2018-01-03T07:48:08.209Z,84
2018-01-03T07:49:08.212Z,72
2018-01-03T07:50:07.659Z,68
2018-01-03T07:51:08.157Z,60
2018-01-03T07:52:08.166Z,76
2018-01-03T07:53:08.163Z,64
2018-01-03T07:54:08.131Z,116
2018-01-03T07:55:08.125Z,128
2018-01-03T07:56:08.114Z,116
2018-01-03T07:57:07.824Z,128
2018-01-03T07:58:07.820Z,140
2018-01-03T07:59:08.074Z,124
2018-01-03T08:00:07.787Z,136
2018-01-03T08:01:08.042Z,140
2018-01-03T08:02:07.766Z,136
2018-01-03T08:03:07.490Z,132
2018-01-03T08:04:07.980Z,152
2018-01-03T08:05:07.719Z,144
2018-01-03T08:06:07.719Z,152
2018-01-03T08:07:07.945Z,148
2018-01-03T08:08:07.935Z,160
2018-01-03T08:09:07.414Z,168
2018-01-03T08:10:07.397Z,160
2018-01-03T08:11:07.888Z,192
2018-01-03T08:12:07.640Z,192
2018-01-03T08:13:07.614Z,220
2018-01-03T08:14:07.605Z,204
2018-01-03T08:15:07.594Z,196
2018-01-03T08:16:07.829Z,196
2018-01-03T08:17:07.823Z,208
2018-01-03T08:18:07.822Z,224
2018-01-03T08:19:07.528Z,260
2018-01-03T08:20:07.520Z,280
2018-01-03T08:21:07.253Z,332
2018-01-03T08:22:07.757Z,328
2018-01-03T08:23:07.748Z,320
2018-01-03T08:24:07.729Z,316
2018-01-03T08:25:07.707Z,360
2018-01-03T08:26:07.705Z,356
2018-01-03T08:27:07.695Z,360
2018-01-03T08:28:07.690Z,308
2018-01-03T08:29:07.409Z,216
2018-01-03T08:30:07.707Z,248
2018-01-03T08:31:07.662Z,224
2018-01-03T08:32:07.647Z,224
2018-01-03T08:33:07.628Z,324
2018-01-03T08:34:07.594Z,460
2018-01-03T08:35:07.317Z,420
2018-01-03T08:36:07.318Z,332
2018-01-03T08:37:07.563Z,312
2018-01-03T08:38:07.552Z,464
2018-01-03T08:39:07.523Z,528
2018-01-03T08:40:07.523Z,676
2018-01-03T08:41:07.512Z,780
2018-01-03T08:42:07.244Z,756
2018-01-03T08:43:07.234Z,764
2018-01-03T08:44:07.229Z,660
2018-01-03T08:45:06.935Z,452
2018-01-03T08:46:06.918Z,348
2018-01-03T08:47:07.238Z,408
2018-01-03T08:48:07.412Z,512
2018-01-03T08:49:07.182Z,440
2018-01-03T08:50:06.883Z,336
2018-01-03T08:51:07.110Z,336
2018-01-03T08:52:07.095Z,428
2018-01-03T08:53:07.346Z,556
2018-01-03T08:54:07.335Z,568
2018-01-03T08:55:07.058Z,616
2018-01-03T08:56:07.326Z,656
2018-01-03T08:57:07.278Z,844
2018-01-03T08:58:07.071Z,776
2018-01-03T08:59:07.267Z,576
2018-01-03T09:00:06.998Z,692
2018-01-03T09:01:06.993Z,856
2018-01-03T09:02:06.964Z,788
2018-01-03T09:03:06.713Z,676
2018-01-03T09:04:07.203Z,736
2018-01-03T09:05:07.228Z,1256
2018-01-03T09:06:07.190Z,1332
2018-01-03T09:07:07.157Z,1148
2018-01-03T09:08:06.908Z,1096
2018-01-03T09:09:06.879Z,1256
2018-01-03T09:10:07.133Z,1560
2018-01-03T09:11:06.607Z,1500
2018-01-03T09:12:06.840Z,1212
2018-01-03T09:13:07.107Z,1320
2018-01-03T09:14:06.856Z,1336
2018-01-03T09:15:06.607Z,1080
2018-01-03T09:16:06.782Z,1356
2018-01-03T09:17:07.043Z,1188
2018-01-03T09:18:06.779Z,1244
2018-01-03T09:19:07.020Z,1032
2018-01-03T09:20:06.761Z,1316
2018-01-03T09:21:07.017Z,1360
2018-01-03T09:22:06.970Z,1436
2018-01-03T09:23:06.967Z,1800
2018-01-03T09:24:06.996Z,1876
2018-01-03T09:25:06.433Z,1704
2018-01-03T09:26:06.661Z,1592
2018-01-03T09:27:06.904Z,1356
2018-01-03T09:28:06.657Z,1304
2018-01-03T09:29:06.623Z,1200
2018-01-03T09:30:06.956Z,1216
2018-01-03T09:31:07.204Z,1236
2018-01-03T09:32:06.883Z,1156
2018-01-03T09:33:06.583Z,1268
2018-01-03T09:34:06.552Z,1552
2018-01-03T09:35:06.579Z,1712
2018-01-03T09:36:06.808Z,1440
2018-01-03T09:37:06.535Z,1736
2018-01-03T09:38:06.759Z,1896
2018-01-03T09:39:06.782Z,1440
2018-01-03T09:40:06.542Z,1148
2018-01-03T09:41:06.512Z,1884
2018-01-03T09:42:06.787Z,1812
2018-01-03T09:43:06.727Z,1800
2018-01-03T09:44:06.441Z,2104
2018-01-03T09:45:06.690Z,2316
2018-01-03T09:46:06.722Z,2364
2018-01-03T09:47:06.700Z,1748
2018-01-03T09:48:06.414Z,1884
2018-01-03T09:49:06.664Z,1760
2018-01-03T09:50:06.467Z,1928
2018-01-03T09:51:06.678Z,2492
2018-01-03T09:52:06.369Z,2128
2018-01-03T09:53:06.076Z,2432
2018-01-03T09:54:06.079Z,3528
2018-01-03T09:55:06.565Z,3556
2018-01-03T09:56:06.031Z,3764
2018-01-03T09:57:06.548Z,3264
2018-01-03T09:58:06.610Z,2700
2018-01-03T09:59:06.001Z,2572
2018-01-03T10:00:06.507Z,2716
2018-01-03T10:01:05.961Z,2796
2018-01-03T10:02:06.475Z,3908
2018-01-03T10:03:06.737Z,3528
2018-01-03T10:04:06.522Z,3608
2018-01-03T10:05:06.206Z,3376
2018-01-03T10:06:06.222Z,2876
2018-01-03T10:07:06.467Z,2576
2018-01-03T10:08:06.186Z,2368
2018-01-03T10:09:06.193Z,2436
2018-01-03T10:10:06.387Z,2024
2018-01-03T10:11:06.395Z,1732
2018-01-03T10:12:06.074Z,1496
2018-01-03T10:13:06.325Z,1676
2018-01-03T10:14:06.310Z,1920
2018-01-03T10:15:06.311Z,1812
2018-01-03T10:16:06.301Z,2392
2018-01-03T10:17:06.041Z,3020
2018-01-03T10:18:06.307Z,3212
2018-01-03T10:19:05.773Z,3008
2018-01-03T10:20:05.982Z,2936
2018-01-03T10:21:05.754Z,3780
2018-01-03T10:22:05.949Z,4416
2018-01-03T10:23:05.953Z,4312
2018-01-03T10:24:06.197Z,2736
2018-01-03T10:25:06.196Z,2744
2018-01-03T10:26:06.167Z,3900
2018-01-03T10:27:05.942Z,3928
2018-01-03T10:28:05.878Z,3700
2018-01-03T10:29:06.144Z,3572
2018-01-03T10:30:05.607Z,3804
2018-01-03T10:31:05.852Z,3872
2018-01-03T10:32:05.830Z,4320
2018-01-03T10:33:05.828Z,4836
2018-01-03T10:34:06.098Z,4780
2018-01-03T10:35:06.118Z,4432
2018-01-03T10:36:05.793Z,4112
2018-01-03T10:37:06.055Z,4304
2018-01-03T10:38:06.030Z,4156
2018-01-03T10:39:06.075Z,4048
2018-01-03T10:40:05.515Z,4076
2018-01-03T10:41:05.842Z,4008
2018-01-03T10:42:05.749Z,3572
2018-01-03T10:43:06.034Z,3136
2018-01-03T10:44:05.970Z,3224
2018-01-03T10:45:05.962Z,3600
2018-01-03T10:46:05.993Z,3840
2018-01-03T10:47:05.924Z,4412
2018-01-03T10:48:05.897Z,4144
2018-01-03T10:49:05.902Z,3576
2018-01-03T10:50:05.648Z,4072
2018-01-03T10:51:05.637Z,4808
2018-01-03T10:52:05.622Z,4956
2018-01-03T10:53:05.856Z,4592
2018-01-03T10:54:05.582Z,4156
2018-01-03T10:55:06.357Z,4028
2018-01-03T10:56:05.871Z,3968
2018-01-03T10:57:05.604Z,3844
2018-01-03T10:58:05.572Z,3836
2018-01-03T10:59:05.832Z,3736
2018-01-03T11:00:05.240Z,3580
2018-01-03T11:01:05.856Z,3592
2018-01-03T11:02:05.805Z,4252
2018-01-03T11:03:05.798Z,4800
2018-01-03T11:04:05.750Z,5200
2018-01-03T11:05:05.488Z,5424
2018-01-03T11:06:05.448Z,5512
2018-01-03T11:07:05.416Z,5240
2018-01-03T11:08:05.147Z,4704
2018-01-03T11:09:05.684Z,4340
2018-01-03T11:10:05.142Z,3912
2018-01-03T11:11:05.705Z,3700
2018-01-03T11:12:05.384Z,3584
2018-01-03T11:13:05.656Z,3744
2018-01-03T11:14:05.087Z,3796
2018-01-03T11:15:05.605Z,4096
2018-01-03T11:16:05.334Z,4404
2018-01-03T11:17:05.595Z,4572
2018-01-03T11:18:05.609Z,4800
2018-01-03T11:19:05.564Z,4872
2018-01-03T11:20:05.295Z,5404
2018-01-03T11:21:05.530Z,5816
2018-01-03T11:22:05.319Z,6032
2018-01-03T11:23:05.530Z,6452
2018-01-03T11:24:05.243Z,7020
2018-01-03T11:25:05.267Z,7640
2018-01-03T11:26:05.685Z,8192
2018-01-03T11:27:05.247Z,8612
2018-01-03T11:28:05.346Z,8072
2018-01-03T11:29:05.204Z,6552
2018-01-03T11:30:05.184Z,5748
2018-01-03T11:31:05.479Z,5576
2018-01-03T11:32:04.922Z,5572
2018-01-03T11:33:05.499Z,5700
2018-01-03T11:34:05.431Z,5988
2018-01-03T11:35:05.166Z,5876
2018-01-03T11:36:05.131Z,6224
2018-01-03T11:37:05.844Z,6580
2018-01-03T11:38:05.350Z,6448
2018-01-03T11:39:05.329Z,6344
2018-01-03T11:40:05.338Z,6800
2018-01-03T11:41:04.592Z,7480
2018-01-03T11:42:05.326Z,7636
2018-01-03T11:43:05.324Z,7744
2018-01-03T11:44:05.311Z,7520
2018-01-03T11:45:05.382Z,7480
2018-01-03T11:46:05.314Z,7788
2018-01-03T11:47:05.322Z,7432
2018-01-03T11:48:05.293Z,7140
2018-01-03T11:49:04.720Z,6992
2018-01-03T11:50:04.984Z,7308
2018-01-03T11:51:05.015Z,7240
2018-01-03T11:52:04.753Z,6776
2018-01-03T11:53:05.217Z,6412
2018-01-03T11:54:05.251Z,6720
2018-01-03T11:55:04.995Z,7060
2018-01-03T11:56:05.203Z,6796
2018-01-03T11:57:04.898Z,6600
2018-01-03T11:58:04.904Z,6488
2018-01-03T11:59:05.156Z,6604
2018-01-03T12:00:04.888Z,6760
2018-01-03T12:01:04.841Z,6972
2018-01-03T12:02:04.870Z,6920
2018-01-03T12:03:04.846Z,6500
2018-01-03T12:04:05.122Z,5948
2018-01-03T12:05:04.845Z,5640
2018-01-03T12:06:04.820Z,5620
2018-01-03T12:07:04.819Z,5532
2018-01-03T12:08:05.077Z,4904
2018-01-03T12:09:05.086Z,4396
2018-01-03T12:10:04.801Z,4236
2018-01-03T12:11:05.056Z,4136
2018-01-03T12:12:04.774Z,4220
2018-01-03T12:13:04.751Z,4504
2018-01-03T12:14:04.474Z,4920
2018-01-03T12:15:04.770Z,5060
2018-01-03T12:16:04.814Z,4992
2018-01-03T12:17:04.983Z,4896
2018-01-03T12:18:04.952Z,4796
2018-01-03T12:19:04.970Z,4712
2018-01-03T12:20:04.458Z,4644
2018-01-03T12:21:04.955Z,4584
2018-01-03T12:22:04.701Z,4632
2018-01-03T12:23:04.922Z,4812
2018-01-03T12:24:04.891Z,5040
2018-01-03T12:25:05.088Z,5148
2018-01-03T12:26:04.656Z,5192
2018-01-03T12:27:04.888Z,5268
2018-01-03T12:28:04.859Z,5200
2018-01-03T12:29:04.839Z,4872
2018-01-03T12:30:04.600Z,4784
2018-01-03T12:31:04.556Z,4264
2018-01-03T12:32:04.029Z,4680
2018-01-03T12:33:04.288Z,3680
2018-01-03T12:34:04.520Z,3276
2018-01-03T12:35:04.805Z,2452
2018-01-03T12:36:04.511Z,1884
2018-01-03T12:37:04.561Z,1484
2018-01-03T12:38:04.755Z,1168
2018-01-03T12:39:04.489Z,984
2018-01-03T12:40:04.728Z,1008
2018-01-03T12:41:04.472Z,1648
2018-01-03T12:42:04.752Z,2852
2018-01-03T12:43:04.775Z,3340
2018-01-03T12:44:04.176Z,3220
2018-01-03T12:45:04.422Z,3068
2018-01-03T12:46:04.676Z,3168
2018-01-03T12:47:04.422Z,3244
2018-01-03T12:48:04.134Z,3296
2018-01-03T12:49:04.749Z,2828
2018-01-03T12:50:04.654Z,2692
2018-01-03T12:51:04.630Z,2580
2018-01-03T12:52:04.383Z,2508
2018-01-03T12:53:04.603Z,2404
2018-01-03T12:54:04.381Z,2720
2018-01-03T12:55:04.332Z,2912
2018-01-03T12:56:04.322Z,3168
2018-01-03T12:57:04.365Z,3744
2018-01-03T12:58:04.585Z,3552
2018-01-03T12:59:04.317Z,3860
2018-01-03T13:00:04.345Z,3492
2018-01-03T13:01:04.564Z,3652
2018-01-03T13:02:04.348Z,4136
2018-01-03T13:03:04.545Z,3976
2018-01-03T13:04:04.232Z,5236
2018-01-03T13:05:04.503Z,5772
2018-01-03T13:06:04.546Z,6340
2018-01-03T13:07:04.739Z,6272
2018-01-03T13:08:03.932Z,6464
2018-01-03T13:09:04.487Z,6348
2018-01-03T13:10:04.443Z,6848
2018-01-03T13:11:04.478Z,6784
2018-01-03T13:12:03.921Z,7148
2018-01-03T13:13:04.497Z,6400
2018-01-03T13:14:04.216Z,6016
2018-01-03T13:15:04.480Z,5460
2018-01-03T13:16:04.405Z,4236
2018-01-03T13:17:04.400Z,3968
2018-01-03T13:18:04.378Z,3748
2018-01-03T13:19:04.360Z,3472
2018-01-03T13:20:04.352Z,3168
2018-01-03T13:21:04.336Z,2600
2018-01-03T13:22:04.056Z,2268
2018-01-03T13:23:04.389Z,2016
2018-01-03T13:24:04.358Z,2616
2018-01-03T13:25:04.051Z,2668
2018-01-03T13:26:04.082Z,2660
2018-01-03T13:27:04.340Z,2776
2018-01-03T13:28:04.269Z,2628
2018-01-03T13:29:04.003Z,2776
2018-01-03T13:30:04.247Z,2508
2018-01-03T13:31:03.996Z,2212
2018-01-03T13:32:04.229Z,2036
2018-01-03T13:33:04.014Z,2016
2018-01-03T13:34:03.962Z,2280
2018-01-03T13:35:04.219Z,2864
2018-01-03T13:36:04.181Z,3180
2018-01-03T13:37:04.224Z,3228
2018-01-03T13:38:04.191Z,3172
2018-01-03T13:39:03.917Z,2748
2018-01-03T13:40:04.151Z,2504
2018-01-03T13:41:03.906Z,2356
2018-01-03T13:42:04.166Z,2248
2018-01-03T13:43:03.874Z,2236
2018-01-03T13:44:03.879Z,2236
2018-01-03T13:45:03.859Z,2240
2018-01-03T13:46:03.844Z,2244
2018-01-03T13:47:04.103Z,2240
2018-01-03T13:48:04.151Z,2276
2018-01-03T13:49:04.062Z,2280
2018-01-03T13:50:04.071Z,2268
2018-01-03T13:51:04.078Z,2268
2018-01-03T13:52:04.033Z,2268
2018-01-03T13:53:04.048Z,2252
2018-01-03T13:54:04.031Z,2212
2018-01-03T13:55:04.009Z,2172
2018-01-03T13:56:03.997Z,2140
2018-01-03T13:57:03.472Z,2112
2018-01-03T13:58:03.472Z,2088
2018-01-03T13:59:03.711Z,2064
2018-01-03T14:00:03.704Z,2044
2018-01-03T14:01:03.716Z,2028
2018-01-03T14:02:03.949Z,2008
2018-01-03T14:03:03.683Z,1988
2018-01-03T14:04:03.700Z,1968
2018-01-03T14:05:03.692Z,1948
2018-01-03T14:06:03.916Z,1932